sensor_id;sensor_type;location;lat;lon;timestamp;P1;durP1;ratioP1;P2;durP2;ratioP2
37823;SDS011;23667;43.246;26.576;2022-12-07T00:00:42;64.57;;;19.87;;
37823;SDS011;23667;43.246;26.576;2022-12-07T00:03:07;51.67;;;16.77;;
37823;SDS011;23667;43.246;26.576;2022-12-07T00:05:33;45.97;;;15.00;;
37823;SDS011;23667;43.246;26.576;2022-12-07T00:07:58;60.33;;;16.83;;
37823;SDS011;23667;43.246;26.576;2022-12-07T00:10:24;54.97;;;15.57;;
37823;SDS011;23667;43.246;26.576;2022-12-07T00:12:49;56.60;;;15.17;;
37823;SDS011;23667;43.246;26.576;2022-12-07T00:15:15;53.30;;;14.57;;
37823;SDS011;23667;43.246;26.576;2022-12-07T00:17:40;44.80;;;13.77;;
37823;SDS011;23667;43.246;26.576;2022-12-07T00:20:06;32.63;;;12.77;;
37823;SDS011;23667;43.246;26.576;2022-12-07T00:22:32;52.67;;;18.57;;
37823;SDS011;23667;43.246;26.576;2022-12-07T00:24:57;49.40;;;18.73;;
37823;SDS011;23667;43.246;26.576;2022-12-07T00:27:22;49.13;;;19.73;;
37823;SDS011;23667;43.246;26.576;2022-12-07T00:29:48;53.97;;;17.50;;
37823;SDS011;23667;43.246;26.576;2022-12-07T00:32:13;45.67;;;14.57;;
37823;SDS011;23667;43.246;26.576;2022-12-07T00:34:39;46.20;;;16.60;;
37823;SDS011;23667;43.246;26.576;2022-12-07T00:37:04;42.17;;;16.83;;
37823;SDS011;23667;43.246;26.576;2022-12-07T00:39:30;67.13;;;18.37;;
37823;SDS011;23667;43.246;26.576;2022-12-07T00:41:55;53.33;;;16.60;;
37823;SDS011;23667;43.246;26.576;2022-12-07T00:44:20;45.83;;;17.87;;
37823;SDS011;23667;43.246;26.576;2022-12-07T00:46:46;45.93;;;15.30;;
37823;SDS011;23667;43.246;26.576;2022-12-07T00:49:11;43.00;;;14.90;;
37823;SDS011;23667;43.246;26.576;2022-12-07T00:51:37;48.13;;;16.60;;
37823;SDS011;23667;43.246;26.576;2022-12-07T00:54:03;41.90;;;14.80;;
37823;SDS011;23667;43.246;26.576;2022-12-07T00:56:29;48.30;;;15.03;;
37823;SDS011;23667;43.246;26.576;2022-12-07T00:59:03;36.63;;;12.97;;
37823;SDS011;23667;43.246;26.576;2022-12-07T01:01:31;39.83;;;15.60;;
37823;SDS011;23667;43.246;26.576;2022-12-07T01:03:59;44.47;;;14.33;;
37823;SDS011;23667;43.246;26.576;2022-12-07T01:06:26;46.63;;;15.47;;
37823;SDS011;23667;43.246;26.576;2022-12-07T01:08:52;46.17;;;14.87;;
37823;SDS011;23667;43.246;26.576;2022-12-07T01:11:19;39.57;;;15.03;;
37823;SDS011;23667;43.246;26.576;2022-12-07T01:13:49;53.33;;;17.97;;
37823;SDS011;23667;43.246;26.576;2022-12-07T01:16:18;40.90;;;14.37;;
37823;SDS011;23667;43.246;26.576;2022-12-07T01:18:46;45.87;;;15.27;;
37823;SDS011;23667;43.246;26.576;2022-12-07T01:21:14;52.97;;;16.23;;
37823;SDS011;23667;43.246;26.576;2022-12-07T01:23:42;45.90;;;15.83;;
37823;SDS011;23667;43.246;26.576;2022-12-07T01:26:13;46.43;;;16.07;;
37823;SDS011;23667;43.246;26.576;2022-12-07T01:28:40;46.50;;;15.33;;
37823;SDS011;23667;43.246;26.576;2022-12-07T01:31:10;50.10;;;17.70;;
37823;SDS011;23667;43.246;26.576;2022-12-07T01:33:40;41.40;;;14.50;;
37823;SDS011;23667;43.246;26.576;2022-12-07T01:36:28;49.33;;;17.07;;
37823;SDS011;23667;43.246;26.576;2022-12-07T01:38:59;36.90;;;13.20;;
37823;SDS011;23667;43.246;26.576;2022-12-07T01:41:27;37.30;;;12.50;;
37823;SDS011;23667;43.246;26.576;2022-12-07T01:44:12;33.47;;;12.20;;
37823;SDS011;23667;43.246;26.576;2022-12-07T01:46:38;35.30;;;11.93;;
37823;SDS011;23667;43.246;26.576;2022-12-07T01:49:09;34.77;;;13.23;;
37823;SDS011;23667;43.246;26.576;2022-12-07T01:51:39;62.20;;;21.57;;
37823;SDS011;23667;43.246;26.576;2022-12-07T01:54:07;70.33;;;22.77;;
37823;SDS011;23667;43.246;26.576;2022-12-07T01:56:36;52.30;;;18.07;;
37823;SDS011;23667;43.246;26.576;2022-12-07T01:59:05;45.47;;;18.57;;
37823;SDS011;23667;43.246;26.576;2022-12-07T02:01:30;55.73;;;19.03;;
37823;SDS011;23667;43.246;26.576;2022-12-07T02:03:56;41.93;;;15.67;;
37823;SDS011;23667;43.246;26.576;2022-12-07T02:06:24;39.77;;;15.40;;
37823;SDS011;23667;43.246;26.576;2022-12-07T02:08:50;44.77;;;15.77;;
37823;SDS011;23667;43.246;26.576;2022-12-07T02:11:16;30.80;;;13.13;;
37823;SDS011;23667;43.246;26.576;2022-12-07T02:13:42;37.50;;;14.87;;
37823;SDS011;23667;43.246;26.576;2022-12-07T02:25:08;40.47;;;14.37;;
37823;SDS011;23667;43.246;26.576;2022-12-07T02:32:57;32.30;;;15.03;;
37823;SDS011;23667;43.246;26.576;2022-12-07T02:35:29;41.60;;;14.23;;
37823;SDS011;23667;43.246;26.576;2022-12-07T02:42:55;45.53;;;17.13;;
37823;SDS011;23667;43.246;26.576;2022-12-07T02:45:26;46.23;;;15.37;;
37823;SDS011;23667;43.246;26.576;2022-12-07T02:47:55;39.43;;;14.87;;
37823;SDS011;23667;43.246;26.576;2022-12-07T02:50:24;39.97;;;16.50;;
37823;SDS011;23667;43.246;26.576;2022-12-07T02:52:49;45.03;;;14.60;;
37823;SDS011;23667;43.246;26.576;2022-12-07T02:55:15;44.47;;;15.73;;
37823;SDS011;23667;43.246;26.576;2022-12-07T03:00:19;33.50;;;14.90;;
37823;SDS011;23667;43.246;26.576;2022-12-07T03:08:46;28.30;;;12.45;;
37823;SDS011;23667;43.246;26.576;2022-12-07T03:11:29;37.67;;;12.87;;
37823;SDS011;23667;43.246;26.576;2022-12-07T03:14:05;37.60;;;14.23;;
37823;SDS011;23667;43.246;26.576;2022-12-07T03:16:45;32.53;;;13.70;;
37823;SDS011;23667;43.246;26.576;2022-12-07T03:19:17;36.67;;;13.23;;
37823;SDS011;23667;43.246;26.576;2022-12-07T03:21:47;26.33;;;8.93;;
37823;SDS011;23667;43.246;26.576;2022-12-07T03:24:19;25.37;;;10.87;;
37823;SDS011;23667;43.246;26.576;2022-12-07T03:26:51;23.87;;;10.10;;
37823;SDS011;23667;43.246;26.576;2022-12-07T03:29:27;24.67;;;12.13;;
37823;SDS011;23667;43.246;26.576;2022-12-07T03:32:00;17.80;;;7.67;;
37823;SDS011;23667;43.246;26.576;2022-12-07T03:34:32;9.30;;;4.50;;
37823;SDS011;23667;43.246;26.576;2022-12-07T03:37:08;9.63;;;3.90;;
37823;SDS011;23667;43.246;26.576;2022-12-07T03:42:30;6.33;;;2.93;;
37823;SDS011;23667;43.246;26.576;2022-12-07T03:44:58;6.27;;;2.93;;
37823;SDS011;23667;43.246;26.576;2022-12-07T03:47:32;9.13;;;3.53;;
37823;SDS011;23667;43.246;26.576;2022-12-07T03:50:31;11.90;;;4.10;;
37823;SDS011;23667;43.246;26.576;2022-12-07T03:53:11;6.00;;;3.03;;
37823;SDS011;23667;43.246;26.576;2022-12-07T03:58:11;6.90;;;2.87;;
37823;SDS011;23667;43.246;26.576;2022-12-07T04:00:41;9.30;;;2.70;;
37823;SDS011;23667;43.246;26.576;2022-12-07T04:03:07;7.47;;;2.97;;
37823;SDS011;23667;43.246;26.576;2022-12-07T04:05:33;8.87;;;3.37;;
37823;SDS011;23667;43.246;26.576;2022-12-07T04:07:58;6.97;;;2.60;;
37823;SDS011;23667;43.246;26.576;2022-12-07T04:10:24;6.90;;;2.83;;
37823;SDS011;23667;43.246;26.576;2022-12-07T04:12:49;6.80;;;3.13;;
37823;SDS011;23667;43.246;26.576;2022-12-07T04:15:15;9.13;;;3.73;;
37823;SDS011;23667;43.246;26.576;2022-12-07T04:17:40;8.17;;;4.63;;
37823;SDS011;23667;43.246;26.576;2022-12-07T04:20:06;18.07;;;11.77;;
37823;SDS011;23667;43.246;26.576;2022-12-07T04:22:32;9.90;;;4.80;;
37823;SDS011;23667;43.246;26.576;2022-12-07T04:24:58;8.23;;;3.57;;
37823;SDS011;23667;43.246;26.576;2022-12-07T04:27:23;9.57;;;4.10;;
37823;SDS011;23667;43.246;26.576;2022-12-07T04:29:48;12.00;;;4.20;;
37823;SDS011;23667;43.246;26.576;2022-12-07T04:32:14;9.47;;;3.90;;
37823;SDS011;23667;43.246;26.576;2022-12-07T04:34:39;7.93;;;3.60;;
37823;SDS011;23667;43.246;26.576;2022-12-07T04:37:05;6.57;;;3.13;;
37823;SDS011;23667;43.246;26.576;2022-12-07T04:39:31;6.33;;;2.93;;
37823;SDS011;23667;43.246;26.576;2022-12-07T04:41:58;8.07;;;3.50;;
37823;SDS011;23667;43.246;26.576;2022-12-07T04:44:25;7.07;;;2.83;;
37823;SDS011;23667;43.246;26.576;2022-12-07T04:46:52;7.80;;;3.60;;
37823;SDS011;23667;43.246;26.576;2022-12-07T04:49:18;8.23;;;3.73;;
37823;SDS011;23667;43.246;26.576;2022-12-07T04:51:44;6.80;;;3.53;;
37823;SDS011;23667;43.246;26.576;2022-12-07T04:54:10;10.33;;;3.83;;
37823;SDS011;23667;43.246;26.576;2022-12-07T04:56:37;9.87;;;3.97;;
37823;SDS011;23667;43.246;26.576;2022-12-07T04:59:03;8.87;;;4.13;;
37823;SDS011;23667;43.246;26.576;2022-12-07T05:01:28;9.60;;;4.30;;
37823;SDS011;23667;43.246;26.576;2022-12-07T05:03:54;9.07;;;4.33;;
37823;SDS011;23667;43.246;26.576;2022-12-07T05:06:19;11.87;;;5.00;;
37823;SDS011;23667;43.246;26.576;2022-12-07T05:08:45;9.77;;;4.80;;
37823;SDS011;23667;43.246;26.576;2022-12-07T05:11:11;10.20;;;4.93;;
37823;SDS011;23667;43.246;26.576;2022-12-07T05:13:57;9.50;;;4.57;;
37823;SDS011;23667;43.246;26.576;2022-12-07T05:16:22;10.47;;;3.97;;
37823;SDS011;23667;43.246;26.576;2022-12-07T05:18:48;8.13;;;3.60;;
37823;SDS011;23667;43.246;26.576;2022-12-07T05:21:13;10.10;;;4.20;;
37823;SDS011;23667;43.246;26.576;2022-12-07T05:23:38;9.00;;;4.00;;
37823;SDS011;23667;43.246;26.576;2022-12-07T05:26:04;11.70;;;4.60;;
37823;SDS011;23667;43.246;26.576;2022-12-07T05:28:29;8.90;;;3.60;;
37823;SDS011;23667;43.246;26.576;2022-12-07T05:30:55;9.27;;;4.80;;
37823;SDS011;23667;43.246;26.576;2022-12-07T05:33:20;10.03;;;3.53;;
37823;SDS011;23667;43.246;26.576;2022-12-07T05:35:46;8.57;;;3.67;;
37823;SDS011;23667;43.246;26.576;2022-12-07T05:38:11;10.43;;;4.73;;
37823;SDS011;23667;43.246;26.576;2022-12-07T05:40:36;13.50;;;4.60;;
37823;SDS011;23667;43.246;26.576;2022-12-07T05:43:02;12.63;;;3.80;;
37823;SDS011;23667;43.246;26.576;2022-12-07T05:45:27;11.07;;;4.87;;
37823;SDS011;23667;43.246;26.576;2022-12-07T05:47:53;14.93;;;5.53;;
37823;SDS011;23667;43.246;26.576;2022-12-07T05:50:18;11.10;;;4.87;;
37823;SDS011;23667;43.246;26.576;2022-12-07T05:52:44;17.13;;;6.10;;
37823;SDS011;23667;43.246;26.576;2022-12-07T05:55:09;14.57;;;6.10;;
37823;SDS011;23667;43.246;26.576;2022-12-07T05:57:35;20.40;;;7.10;;
37823;SDS011;23667;43.246;26.576;2022-12-07T06:00:01;17.97;;;6.77;;
37823;SDS011;23667;43.246;26.576;2022-12-07T06:02:27;11.70;;;5.30;;
37823;SDS011;23667;43.246;26.576;2022-12-07T06:04:52;9.00;;;4.97;;
37823;SDS011;23667;43.246;26.576;2022-12-07T06:07:18;12.77;;;5.83;;
37823;SDS011;23667;43.246;26.576;2022-12-07T06:09:43;12.60;;;6.30;;
37823;SDS011;23667;43.246;26.576;2022-12-07T06:12:09;15.10;;;5.87;;
37823;SDS011;23667;43.246;26.576;2022-12-07T06:14:55;16.03;;;5.90;;
37823;SDS011;23667;43.246;26.576;2022-12-07T06:17:20;14.17;;;5.80;;
37823;SDS011;23667;43.246;26.576;2022-12-07T06:19:46;13.80;;;6.83;;
37823;SDS011;23667;43.246;26.576;2022-12-07T06:22:11;17.23;;;7.07;;
37823;SDS011;23667;43.246;26.576;2022-12-07T06:24:37;39.17;;;15.97;;
37823;SDS011;23667;43.246;26.576;2022-12-07T06:27:04;46.23;;;17.63;;
37823;SDS011;23667;43.246;26.576;2022-12-07T06:29:29;34.70;;;16.27;;
37823;SDS011;23667;43.246;26.576;2022-12-07T06:31:55;33.83;;;15.00;;
37823;SDS011;23667;43.246;26.576;2022-12-07T06:34:21;32.77;;;14.30;;
37823;SDS011;23667;43.246;26.576;2022-12-07T06:36:48;49.93;;;20.33;;
37823;SDS011;23667;43.246;26.576;2022-12-07T06:39:20;42.77;;;18.03;;
37823;SDS011;23667;43.246;26.576;2022-12-07T06:41:47;33.60;;;13.87;;
37823;SDS011;23667;43.246;26.576;2022-12-07T06:44:13;27.67;;;11.67;;
37823;SDS011;23667;43.246;26.576;2022-12-07T06:46:39;16.73;;;8.03;;
37823;SDS011;23667;43.246;26.576;2022-12-07T06:49:05;13.07;;;5.97;;
37823;SDS011;23667;43.246;26.576;2022-12-07T06:51:31;18.80;;;6.13;;
37823;SDS011;23667;43.246;26.576;2022-12-07T06:53:58;25.20;;;10.03;;
37823;SDS011;23667;43.246;26.576;2022-12-07T06:56:23;23.03;;;9.43;;
37823;SDS011;23667;43.246;26.576;2022-12-07T06:58:49;21.43;;;9.20;;
37823;SDS011;23667;43.246;26.576;2022-12-07T07:01:15;18.20;;;5.85;;
37823;SDS011;23667;43.246;26.576;2022-12-07T07:03:42;16.38;;;7.10;;
37823;SDS011;23667;43.246;26.576;2022-12-07T07:06:09;16.53;;;8.10;;
37823;SDS011;23667;43.246;26.576;2022-12-07T07:08:35;16.42;;;7.32;;
37823;SDS011;23667;43.246;26.576;2022-12-07T07:11:02;11.73;;;6.38;;
37823;SDS011;23667;43.246;26.576;2022-12-07T07:13:28;15.40;;;6.65;;
37823;SDS011;23667;43.246;26.576;2022-12-07T07:15:54;19.60;;;8.57;;
37823;SDS011;23667;43.246;26.576;2022-12-07T07:18:19;14.88;;;6.93;;
37823;SDS011;23667;43.246;26.576;2022-12-07T07:20:45;17.15;;;7.88;;
37823;SDS011;23667;43.246;26.576;2022-12-07T07:23:10;15.00;;;6.82;;
37823;SDS011;23667;43.246;26.576;2022-12-07T07:25:36;21.05;;;7.55;;
37823;SDS011;23667;43.246;26.576;2022-12-07T07:28:02;12.95;;;7.15;;
37823;SDS011;23667;43.246;26.576;2022-12-07T07:30:28;14.27;;;7.30;;
37823;SDS011;23667;43.246;26.576;2022-12-07T07:32:57;18.55;;;7.97;;
37823;SDS011;23667;43.246;26.576;2022-12-07T07:35:23;17.52;;;7.35;;
37823;SDS011;23667;43.246;26.576;2022-12-07T07:37:49;12.35;;;6.18;;
37823;SDS011;23667;43.246;26.576;2022-12-07T07:40:15;17.20;;;6.03;;
37823;SDS011;23667;43.246;26.576;2022-12-07T07:42:40;13.05;;;5.18;;
37823;SDS011;23667;43.246;26.576;2022-12-07T07:45:06;9.70;;;5.00;;
37823;SDS011;23667;43.246;26.576;2022-12-07T07:47:32;6.10;;;3.35;;
37823;SDS011;23667;43.246;26.576;2022-12-07T07:49:57;5.60;;;3.15;;
37823;SDS011;23667;43.246;26.576;2022-12-07T07:52:23;6.03;;;3.55;;
37823;SDS011;23667;43.246;26.576;2022-12-07T07:54:48;9.50;;;3.25;;
37823;SDS011;23667;43.246;26.576;2022-12-07T07:57:15;10.18;;;4.13;;
37823;SDS011;23667;43.246;26.576;2022-12-07T07:59:41;9.80;;;3.25;;
37823;SDS011;23667;43.246;26.576;2022-12-07T08:02:09;6.95;;;3.20;;
37823;SDS011;23667;43.246;26.576;2022-12-07T08:04:39;9.40;;;3.60;;
37823;SDS011;23667;43.246;26.576;2022-12-07T08:07:04;4.32;;;2.55;;
37823;SDS011;23667;43.246;26.576;2022-12-07T08:09:30;7.22;;;2.97;;
37823;SDS011;23667;43.246;26.576;2022-12-07T08:11:55;9.32;;;3.60;;
37823;SDS011;23667;43.246;26.576;2022-12-07T08:14:21;4.68;;;2.60;;
37823;SDS011;23667;43.246;26.576;2022-12-07T08:16:46;7.85;;;3.78;;
37823;SDS011;23667;43.246;26.576;2022-12-07T08:19:12;8.30;;;3.55;;
37823;SDS011;23667;43.246;26.576;2022-12-07T08:21:37;8.32;;;3.88;;
37823;SDS011;23667;43.246;26.576;2022-12-07T08:24:03;10.65;;;4.22;;
37823;SDS011;23667;43.246;26.576;2022-12-07T08:26:28;7.18;;;3.65;;
37823;SDS011;23667;43.246;26.576;2022-12-07T08:28:54;8.52;;;3.10;;
37823;SDS011;23667;43.246;26.576;2022-12-07T08:31:19;10.52;;;3.63;;
37823;SDS011;23667;43.246;26.576;2022-12-07T08:33:46;8.85;;;3.80;;
37823;SDS011;23667;43.246;26.576;2022-12-07T08:36:12;7.90;;;4.05;;
37823;SDS011;23667;43.246;26.576;2022-12-07T08:38:39;6.40;;;3.88;;
37823;SDS011;23667;43.246;26.576;2022-12-07T08:41:06;8.57;;;3.63;;
37823;SDS011;23667;43.246;26.576;2022-12-07T08:43:32;5.65;;;2.72;;
37823;SDS011;23667;43.246;26.576;2022-12-07T08:51:52;7.60;;;4.70;;
37823;SDS011;23667;43.246;26.576;2022-12-07T08:54:19;12.45;;;3.63;;
37823;SDS011;23667;43.246;26.576;2022-12-07T08:56:45;6.28;;;3.38;;
37823;SDS011;23667;43.246;26.576;2022-12-07T08:59:13;8.18;;;3.60;;
37823;SDS011;23667;43.246;26.576;2022-12-07T09:01:42;4.93;;;2.63;;
37823;SDS011;23667;43.246;26.576;2022-12-07T09:04:08;10.20;;;3.35;;
37823;SDS011;23667;43.246;26.576;2022-12-07T09:06:33;9.52;;;4.43;;
37823;SDS011;23667;43.246;26.576;2022-12-07T09:08:59;11.07;;;5.43;;
37823;SDS011;23667;43.246;26.576;2022-12-07T09:11:26;24.58;;;7.85;;
37823;SDS011;23667;43.246;26.576;2022-12-07T09:13:51;38.95;;;10.80;;
37823;SDS011;23667;43.246;26.576;2022-12-07T09:16:17;15.25;;;5.68;;
37823;SDS011;23667;43.246;26.576;2022-12-07T09:18:43;7.97;;;3.63;;
37823;SDS011;23667;43.246;26.576;2022-12-07T09:21:08;11.18;;;4.53;;
37823;SDS011;23667;43.246;26.576;2022-12-07T09:23:34;11.52;;;4.95;;
37823;SDS011;23667;43.246;26.576;2022-12-07T09:26:00;9.32;;;3.88;;
37823;SDS011;23667;43.246;26.576;2022-12-07T09:28:26;12.57;;;4.63;;
37823;SDS011;23667;43.246;26.576;2022-12-07T09:30:52;9.07;;;3.97;;
37823;SDS011;23667;43.246;26.576;2022-12-07T09:33:17;10.38;;;4.13;;
37823;SDS011;23667;43.246;26.576;2022-12-07T09:35:48;12.95;;;4.90;;
37823;SDS011;23667;43.246;26.576;2022-12-07T09:38:14;23.60;;;8.57;;
37823;SDS011;23667;43.246;26.576;2022-12-07T09:40:40;21.50;;;7.90;;
37823;SDS011;23667;43.246;26.576;2022-12-07T09:43:18;21.88;;;7.15;;
37823;SDS011;23667;43.246;26.576;2022-12-07T09:45:47;32.88;;;9.30;;
37823;SDS011;23667;43.246;26.576;2022-12-07T09:48:19;30.08;;;9.45;;
37823;SDS011;23667;43.246;26.576;2022-12-07T09:50:47;33.55;;;10.35;;
37823;SDS011;23667;43.246;26.576;2022-12-07T09:53:28;27.75;;;7.60;;
37823;SDS011;23667;43.246;26.576;2022-12-07T09:55:59;22.20;;;6.15;;
37823;SDS011;23667;43.246;26.576;2022-12-07T09:58:27;27.73;;;9.35;;
37823;SDS011;23667;43.246;26.576;2022-12-07T10:00:59;22.35;;;6.78;;
37823;SDS011;23667;43.246;26.576;2022-12-07T10:03:30;22.83;;;6.65;;
37823;SDS011;23667;43.246;26.576;2022-12-07T10:05:55;19.02;;;5.30;;
37823;SDS011;23667;43.246;26.576;2022-12-07T10:08:22;21.15;;;5.53;;
37823;SDS011;23667;43.246;26.576;2022-12-07T10:10:50;19.35;;;5.40;;
37823;SDS011;23667;43.246;26.576;2022-12-07T10:13:20;21.15;;;5.22;;
37823;SDS011;23667;43.246;26.576;2022-12-07T10:15:58;17.73;;;4.80;;
37823;SDS011;23667;43.246;26.576;2022-12-07T10:18:31;14.95;;;4.72;;
37823;SDS011;23667;43.246;26.576;2022-12-07T10:21:14;11.70;;;5.07;;
37823;SDS011;23667;43.246;26.576;2022-12-07T10:23:58;9.10;;;3.72;;
37823;SDS011;23667;43.246;26.576;2022-12-07T10:32:00;13.20;;;3.90;;
37823;SDS011;23667;43.246;26.576;2022-12-07T10:34:35;20.85;;;5.13;;
37823;SDS011;23667;43.246;26.576;2022-12-07T10:39:41;15.57;;;6.78;;
37823;SDS011;23667;43.246;26.576;2022-12-07T10:42:09;24.13;;;6.47;;
37823;SDS011;23667;43.246;26.576;2022-12-07T10:44:42;15.55;;;4.53;;
37823;SDS011;23667;43.246;26.576;2022-12-07T10:52:53;11.35;;;4.97;;
37823;SDS011;23667;43.246;26.576;2022-12-07T11:12:40;11.68;;;4.82;;
37823;SDS011;23667;43.246;26.576;2022-12-07T11:15:33;12.57;;;5.03;;
37823;SDS011;23667;43.246;26.576;2022-12-07T11:18:29;16.88;;;6.35;;
37823;SDS011;23667;43.246;26.576;2022-12-07T11:37:47;10.27;;;4.18;;
37823;SDS011;23667;43.246;26.576;2022-12-07T11:40:19;13.65;;;3.83;;
37823;SDS011;23667;43.246;26.576;2022-12-07T11:43:01;8.93;;;3.97;;
37823;SDS011;23667;43.246;26.576;2022-12-07T11:45:33;15.27;;;5.00;;
37823;SDS011;23667;43.246;26.576;2022-12-07T11:48:03;9.70;;;4.95;;
37823;SDS011;23667;43.246;26.576;2022-12-07T11:50:39;17.42;;;4.55;;
37823;SDS011;23667;43.246;26.576;2022-12-07T12:03:46;14.60;;;5.63;;
37823;SDS011;23667;43.246;26.576;2022-12-07T12:06:14;18.40;;;6.80;;
37823;SDS011;23667;43.246;26.576;2022-12-07T12:08:42;50.55;;;15.75;;
37823;SDS011;23667;43.246;26.576;2022-12-07T12:11:17;26.13;;;9.02;;
37823;SDS011;23667;43.246;26.576;2022-12-07T12:14:01;14.18;;;4.55;;
37823;SDS011;23667;43.246;26.576;2022-12-07T12:18:58;18.30;;;6.88;;
37823;SDS011;23667;43.246;26.576;2022-12-07T12:21:29;17.63;;;6.82;;
37823;SDS011;23667;43.246;26.576;2022-12-07T12:24:15;11.20;;;5.85;;
37823;SDS011;23667;43.246;26.576;2022-12-07T12:26:52;12.80;;;6.90;;
37823;SDS011;23667;43.246;26.576;2022-12-07T12:29:34;17.20;;;6.90;;
37823;SDS011;23667;43.246;26.576;2022-12-07T12:42:47;8.77;;;4.85;;
37823;SDS011;23667;43.246;26.576;2022-12-07T12:50:43;12.40;;;6.20;;
37823;SDS011;23667;43.246;26.576;2022-12-07T13:03:57;12.10;;;5.40;;
37823;SDS011;23667;43.246;26.576;2022-12-07T13:08:55;20.60;;;7.20;;
37823;SDS011;23667;43.246;26.576;2022-12-07T13:16:41;10.20;;;4.22;;
37823;SDS011;23667;43.246;26.576;2022-12-07T13:27:55;6.55;;;3.67;;
37823;SDS011;23667;43.246;26.576;2022-12-07T13:30:26;8.00;;;4.38;;
37823;SDS011;23667;43.246;26.576;2022-12-07T13:32:54;12.00;;;4.60;;
37823;SDS011;23667;43.246;26.576;2022-12-07T13:35:28;12.23;;;5.20;;
37823;SDS011;23667;43.246;26.576;2022-12-07T13:38:03;9.98;;;4.10;;
37823;SDS011;23667;43.246;26.576;2022-12-07T13:40:31;8.63;;;4.35;;
37823;SDS011;23667;43.246;26.576;2022-12-07T13:43:00;9.43;;;4.70;;
37823;SDS011;23667;43.246;26.576;2022-12-07T13:45:30;13.20;;;6.50;;
37823;SDS011;23667;43.246;26.576;2022-12-07T13:50:52;56.40;;;17.15;;
37823;SDS011;23667;43.246;26.576;2022-12-07T13:53:19;37.78;;;14.23;;
37823;SDS011;23667;43.246;26.576;2022-12-07T13:55:45;51.17;;;18.05;;
37823;SDS011;23667;43.246;26.576;2022-12-07T13:58:11;40.22;;;15.77;;
37823;SDS011;23667;43.246;26.576;2022-12-07T14:00:37;28.63;;;11.32;;
37823;SDS011;23667;43.246;26.576;2022-12-07T14:05:37;32.33;;;12.15;;
37823;SDS011;23667;43.246;26.576;2022-12-07T14:08:05;14.27;;;6.15;;
37823;SDS011;23667;43.246;26.576;2022-12-07T14:13:02;11.75;;;5.85;;
37823;SDS011;23667;43.246;26.576;2022-12-07T14:15:51;16.20;;;7.28;;
37823;SDS011;23667;43.246;26.576;2022-12-07T14:18:36;29.13;;;11.80;;
37823;SDS011;23667;43.246;26.576;2022-12-07T14:21:05;22.80;;;7.78;;
37823;SDS011;23667;43.246;26.576;2022-12-07T14:23:42;14.02;;;5.82;;
37823;SDS011;23667;43.246;26.576;2022-12-07T14:26:11;14.70;;;5.22;;
37823;SDS011;23667;43.246;26.576;2022-12-07T14:29:06;10.90;;;5.82;;
37823;SDS011;23667;43.246;26.576;2022-12-07T14:31:47;12.23;;;5.60;;
37823;SDS011;23667;43.246;26.576;2022-12-07T14:34:13;14.18;;;6.38;;
37823;SDS011;23667;43.246;26.576;2022-12-07T14:36:38;21.38;;;8.52;;
37823;SDS011;23667;43.246;26.576;2022-12-07T14:39:04;39.70;;;13.63;;
37823;SDS011;23667;43.246;26.576;2022-12-07T14:41:30;41.47;;;15.75;;
37823;SDS011;23667;43.246;26.576;2022-12-07T14:44:14;46.92;;;19.48;;
37823;SDS011;23667;43.246;26.576;2022-12-07T14:46:39;31.15;;;10.98;;
37823;SDS011;23667;43.246;26.576;2022-12-07T14:49:05;19.80;;;8.75;;
37823;SDS011;23667;43.246;26.576;2022-12-07T14:51:30;20.88;;;9.65;;
37823;SDS011;23667;43.246;26.576;2022-12-07T14:53:57;40.35;;;12.52;;
37823;SDS011;23667;43.246;26.576;2022-12-07T14:56:22;31.60;;;12.75;;
37823;SDS011;23667;43.246;26.576;2022-12-07T14:58:48;32.80;;;16.90;;
37823;SDS011;23667;43.246;26.576;2022-12-07T15:01:14;48.97;;;19.85;;
37823;SDS011;23667;43.246;26.576;2022-12-07T15:03:41;31.73;;;15.75;;
37823;SDS011;23667;43.246;26.576;2022-12-07T15:06:07;28.30;;;13.30;;
37823;SDS011;23667;43.246;26.576;2022-12-07T15:08:33;27.88;;;11.95;;
37823;SDS011;23667;43.246;26.576;2022-12-07T15:10:58;49.35;;;14.35;;
37823;SDS011;23667;43.246;26.576;2022-12-07T15:13:24;41.20;;;11.45;;
37823;SDS011;23667;43.246;26.576;2022-12-07T15:16:09;38.83;;;12.20;;
37823;SDS011;23667;43.246;26.576;2022-12-07T15:18:38;40.60;;;16.85;;
37823;SDS011;23667;43.246;26.576;2022-12-07T15:21:03;56.53;;;21.60;;
37823;SDS011;23667;43.246;26.576;2022-12-07T15:23:29;39.45;;;18.85;;
37823;SDS011;23667;43.246;26.576;2022-12-07T15:25:54;49.50;;;20.50;;
37823;SDS011;23667;43.246;26.576;2022-12-07T15:28:20;30.98;;;13.98;;
37823;SDS011;23667;43.246;26.576;2022-12-07T15:30:45;46.33;;;17.83;;
37823;SDS011;23667;43.246;26.576;2022-12-07T15:33:11;50.88;;;18.27;;
37823;SDS011;23667;43.246;26.576;2022-12-07T15:35:41;66.80;;;21.20;;
37823;SDS011;23667;43.246;26.576;2022-12-07T15:38:10;35.90;;;13.70;;
37823;SDS011;23667;43.246;26.576;2022-12-07T15:40:36;36.42;;;14.65;;
37823;SDS011;23667;43.246;26.576;2022-12-07T15:43:01;40.15;;;15.73;;
37823;SDS011;23667;43.246;26.576;2022-12-07T15:45:27;46.42;;;16.70;;
37823;SDS011;23667;43.246;26.576;2022-12-07T15:47:52;53.83;;;18.55;;
37823;SDS011;23667;43.246;26.576;2022-12-07T15:50:20;51.33;;;18.15;;
37823;SDS011;23667;43.246;26.576;2022-12-07T15:52:47;53.05;;;21.80;;
37823;SDS011;23667;43.246;26.576;2022-12-07T15:55:12;62.60;;;22.15;;
37823;SDS011;23667;43.246;26.576;2022-12-07T15:57:39;72.40;;;29.75;;
37823;SDS011;23667;43.246;26.576;2022-12-07T16:00:05;101.85;;;38.08;;
37823;SDS011;23667;43.246;26.576;2022-12-07T16:02:33;75.85;;;31.08;;
37823;SDS011;23667;43.246;26.576;2022-12-07T16:05:00;68.13;;;26.67;;
37823;SDS011;23667;43.246;26.576;2022-12-07T16:07:25;78.43;;;27.90;;
37823;SDS011;23667;43.246;26.576;2022-12-07T16:09:51;80.00;;;34.72;;
37823;SDS011;23667;43.246;26.576;2022-12-07T16:12:16;94.50;;;39.80;;
37823;SDS011;23667;43.246;26.576;2022-12-07T16:14:42;92.82;;;39.47;;
37823;SDS011;23667;43.246;26.576;2022-12-07T16:17:08;82.47;;;35.00;;
37823;SDS011;23667;43.246;26.576;2022-12-07T16:19:34;82.03;;;35.55;;
37823;SDS011;23667;43.246;26.576;2022-12-07T16:22:00;88.93;;;39.60;;
37823;SDS011;23667;43.246;26.576;2022-12-07T16:24:26;86.70;;;39.28;;
37823;SDS011;23667;43.246;26.576;2022-12-07T16:26:51;73.40;;;33.80;;
37823;SDS011;23667;43.246;26.576;2022-12-07T16:29:18;90.75;;;33.33;;
37823;SDS011;23667;43.246;26.576;2022-12-07T16:31:45;78.13;;;32.80;;
37823;SDS011;23667;43.246;26.576;2022-12-07T16:34:11;81.80;;;33.67;;
37823;SDS011;23667;43.246;26.576;2022-12-07T16:36:36;79.15;;;33.70;;
37823;SDS011;23667;43.246;26.576;2022-12-07T16:39:02;77.38;;;33.97;;
37823;SDS011;23667;43.246;26.576;2022-12-07T16:41:28;83.95;;;36.08;;
37823;SDS011;23667;43.246;26.576;2022-12-07T16:43:54;79.75;;;36.20;;
37823;SDS011;23667;43.246;26.576;2022-12-07T16:46:19;88.00;;;40.22;;
37823;SDS011;23667;43.246;26.576;2022-12-07T16:48:45;106.90;;;42.22;;
37823;SDS011;23667;43.246;26.576;2022-12-07T16:51:12;109.22;;;45.05;;
37823;SDS011;23667;43.246;26.576;2022-12-07T16:53:39;102.97;;;46.10;;
37823;SDS011;23667;43.246;26.576;2022-12-07T16:56:12;102.88;;;42.60;;